createdAt,value
2022-10-12T00:01:07.303Z,17.23
2022-10-12T00:03:35.552Z,16.67
2022-10-12T00:06:05.278Z,16.00
2022-10-12T00:08:33.386Z,18.30
2022-10-12T00:11:00.367Z,17.10
2022-10-12T00:13:27.832Z,17.38
2022-10-12T00:15:54.908Z,17.48
2022-10-12T00:18:22.020Z,16.77
2022-10-12T00:20:48.998Z,16.48
2022-10-12T00:23:15.973Z,16.83
2022-10-12T00:25:42.978Z,16.45
2022-10-12T00:28:10.025Z,16.55
2022-10-12T00:30:40.602Z,16.05
2022-10-12T00:33:07.598Z,15.90
2022-10-12T00:35:34.647Z,16.40
2022-10-12T00:38:01.644Z,15.80
2022-10-12T00:40:28.684Z,16.00
2022-10-12T00:42:55.686Z,16.80
2022-10-12T00:45:25.244Z,16.30
2022-10-12T00:47:56.246Z,15.52
2022-10-12T00:50:30.671Z,16.90
2022-10-12T00:53:04.478Z,17.05
2022-10-12T00:55:38.356Z,17.00
2022-10-12T00:58:08.484Z,17.25
2022-10-12T01:00:38.450Z,16.60
2022-10-12T01:03:08.365Z,16.20
2022-10-12T01:08:03.056Z,15.57
2022-10-12T01:10:30.118Z,16.70
2022-10-12T01:12:57.334Z,15.45
2022-10-12T01:15:31.782Z,16.35
2022-10-12T01:18:20.201Z,16.55
2022-10-12T01:21:09.786Z,17.00
2022-10-12T01:23:39.766Z,15.82
2022-10-12T01:26:39.326Z,16.85
2022-10-12T01:29:12.095Z,16.23
2022-10-12T01:31:53.077Z,16.48
2022-10-12T01:34:34.836Z,16.88
2022-10-12T01:37:11.739Z,16.65
2022-10-12T01:39:47.151Z,16.92
2022-10-12T01:42:20.255Z,16.25
2022-10-12T01:44:47.227Z,17.05
2022-10-12T01:47:14.330Z,17.02
2022-10-12T01:49:41.410Z,16.33
2022-10-12T01:52:17.355Z,15.90
2022-10-12T01:55:00.068Z,16.77
2022-10-12T01:57:45.148Z,16.98
2022-10-12T02:00:15.000Z,18.10
2022-10-12T02:05:42.651Z,17.30
2022-10-12T02:08:22.217Z,17.00
2022-10-12T02:10:58.473Z,18.08
2022-10-12T02:13:29.684Z,17.15
2022-10-12T02:15:59.161Z,17.30
2022-10-12T02:18:28.869Z,17.67
2022-10-12T02:20:59.106Z,18.48
2022-10-12T02:23:28.334Z,18.63
2022-10-12T02:25:57.724Z,17.75
2022-10-12T02:28:28.006Z,17.98
2022-10-12T02:31:18.778Z,18.02
2022-10-12T02:33:49.533Z,17.33
2022-10-12T02:36:26.137Z,17.67
2022-10-12T02:39:13.639Z,17.92
2022-10-12T02:41:46.678Z,18.20
2022-10-12T02:44:19.817Z,18.75
2022-10-12T02:46:48.527Z,18.40
2022-10-12T02:49:17.562Z,18.15
2022-10-12T02:51:46.276Z,17.70
2022-10-12T02:54:13.982Z,18.73
2022-10-12T02:56:45.973Z,17.65
2022-10-12T02:59:17.758Z,18.50
2022-10-12T03:01:44.747Z,17.83
2022-10-12T03:04:11.894Z,19.17
2022-10-12T03:06:38.933Z,20.00
2022-10-12T03:09:05.883Z,19.63
2022-10-12T03:11:32.860Z,18.27
2022-10-12T03:14:00.172Z,20.58
2022-10-12T03:16:27.137Z,19.08
2022-10-12T03:18:54.135Z,19.90
2022-10-12T03:21:21.528Z,18.98
2022-10-12T03:23:48.527Z,19.73
2022-10-12T03:26:15.462Z,19.23
2022-10-12T03:28:42.446Z,19.05
2022-10-12T03:31:09.398Z,18.85
2022-10-12T03:33:36.389Z,20.08
2022-10-12T03:36:03.778Z,22.35
2022-10-12T03:38:30.739Z,24.33
2022-10-12T03:40:59.211Z,29.42
2022-10-12T03:43:27.791Z,25.27
2022-10-12T03:45:54.779Z,23.40
2022-10-12T03:48:21.806Z,23.20
2022-10-12T03:50:51.280Z,23.30
2022-10-12T03:53:19.177Z,20.73
2022-10-12T03:55:46.704Z,22.00
2022-10-12T03:58:14.543Z,22.63
2022-10-12T04:00:41.636Z,22.20
2022-10-12T04:03:08.600Z,22.65
2022-10-12T04:05:35.595Z,23.15
2022-10-12T04:08:02.707Z,23.35
2022-10-12T04:10:29.665Z,23.10
2022-10-12T04:13:26.618Z,21.17
2022-10-12T04:15:53.615Z,21.13
2022-10-12T04:18:20.565Z,21.35
2022-10-12T04:20:49.287Z,21.10
2022-10-12T04:23:16.342Z,22.40
2022-10-12T04:25:43.350Z,21.83
2022-10-12T04:28:10.351Z,20.92
2022-10-12T04:30:37.382Z,21.10
2022-10-12T04:33:04.775Z,20.77
2022-10-12T04:35:32.090Z,21.73
2022-10-12T04:37:59.057Z,21.23
2022-10-12T04:40:26.058Z,23.20
2022-10-12T04:42:52.996Z,20.83
2022-10-12T04:45:20.064Z,21.80
2022-10-12T04:47:47.006Z,21.73
2022-10-12T04:50:14.063Z,21.75
2022-10-12T04:52:41.102Z,22.63
2022-10-12T04:55:08.857Z,23.55
2022-10-12T04:57:36.030Z,22.88
2022-10-12T05:00:03.847Z,24.50
2022-10-12T05:02:30.770Z,24.73
2022-10-12T05:04:58.259Z,26.55
2022-10-12T05:07:25.334Z,23.48
2022-10-12T05:09:52.313Z,22.58
2022-10-12T05:12:19.342Z,24.55
2022-10-12T05:14:46.376Z,24.20
2022-10-12T05:17:13.334Z,25.02
2022-10-12T05:19:40.265Z,23.50
2022-10-12T05:22:07.250Z,24.08
2022-10-12T05:24:34.281Z,25.52
2022-10-12T05:27:01.340Z,26.88
2022-10-12T05:30:06.131Z,23.98
2022-10-12T05:32:33.195Z,25.90
2022-10-12T05:35:00.532Z,23.98
2022-10-12T05:37:27.581Z,25.50
2022-10-12T05:39:54.738Z,23.80
2022-10-12T05:42:21.691Z,23.98
2022-10-12T05:44:48.676Z,23.88
2022-10-12T05:47:15.682Z,23.80
2022-10-12T05:49:42.668Z,23.33
2022-10-12T05:52:09.625Z,26.40
2022-10-12T05:54:36.654Z,25.25
2022-10-12T05:57:03.845Z,25.15
2022-10-12T05:59:30.851Z,23.65
2022-10-12T06:01:57.921Z,24.05
2022-10-12T06:04:25.133Z,24.20
2022-10-12T06:06:52.093Z,23.55
2022-10-12T06:09:19.382Z,23.58
2022-10-12T06:11:46.432Z,24.88
2022-10-12T06:14:13.468Z,22.95
2022-10-12T06:16:40.489Z,23.77
2022-10-12T06:19:07.539Z,24.38
2022-10-12T06:21:34.990Z,24.42
2022-10-12T06:24:02.412Z,24.60
2022-10-12T06:26:29.401Z,23.90
2022-10-12T06:28:56.544Z,24.00
2022-10-12T06:31:23.610Z,23.05
2022-10-12T06:33:51.134Z,25.95
2022-10-12T06:36:18.304Z,24.77
2022-10-12T06:38:45.301Z,24.52
2022-10-12T06:41:12.620Z,25.17
2022-10-12T06:43:39.590Z,25.48
2022-10-12T06:46:06.654Z,26.33
2022-10-12T06:48:33.605Z,26.92
2022-10-12T06:51:00.620Z,25.25
2022-10-12T06:53:31.075Z,24.33
2022-10-12T06:55:58.035Z,24.65
2022-10-12T06:58:25.283Z,23.15
2022-10-12T07:00:52.636Z,24.60
2022-10-12T07:03:20.416Z,24.23
2022-10-12T07:05:47.447Z,26.85
2022-10-12T07:08:14.451Z,24.75
2022-10-12T07:10:41.400Z,24.40
2022-10-12T07:13:08.359Z,24.98
2022-10-12T07:15:35.355Z,25.80
2022-10-12T07:18:02.299Z,27.20
2022-10-12T07:20:29.285Z,25.88
2022-10-12T07:22:56.245Z,26.73
2022-10-12T07:25:23.206Z,26.02
2022-10-12T07:27:50.503Z,26.17
2022-10-12T07:30:17.655Z,28.60
2022-10-12T07:32:46.220Z,28.70
2022-10-12T07:35:13.262Z,27.98
2022-10-12T07:37:40.537Z,28.25
2022-10-12T07:40:08.561Z,28.83
2022-10-12T07:42:35.517Z,30.95
2022-10-12T07:45:02.491Z,30.13
2022-10-12T07:47:29.479Z,30.00
2022-10-12T07:49:56.489Z,31.02
2022-10-12T07:52:23.526Z,30.33
2022-10-12T07:54:50.520Z,31.52
2022-10-12T07:57:17.486Z,31.80
2022-10-12T07:59:44.472Z,29.52
2022-10-12T08:02:12.406Z,29.25
2022-10-12T08:04:39.664Z,30.05
2022-10-12T08:07:06.668Z,28.88
2022-10-12T08:09:35.999Z,30.88
2022-10-12T08:12:03.872Z,28.15
2022-10-12T08:14:30.825Z,27.77
2022-10-12T08:16:57.700Z,28.33
2022-10-12T08:19:24.601Z,27.75
2022-10-12T08:21:52.679Z,27.83
2022-10-12T08:24:19.763Z,26.65
2022-10-12T08:26:46.703Z,25.50
2022-10-12T08:29:13.725Z,25.42
2022-10-12T08:31:40.900Z,27.17
2022-10-12T08:34:08.345Z,26.20
2022-10-12T08:36:35.297Z,26.40
2022-10-12T08:39:02.637Z,26.30
2022-10-12T08:41:35.479Z,27.40
2022-10-12T08:44:33.600Z,26.15
2022-10-12T08:47:10.953Z,26.90
2022-10-12T08:49:40.412Z,27.90
2022-10-12T08:52:37.602Z,26.10
2022-10-12T08:55:16.925Z,26.17
2022-10-12T08:57:49.063Z,29.25
2022-10-12T09:00:18.158Z,26.70
2022-10-12T09:02:57.006Z,26.67
2022-10-12T09:05:34.131Z,28.48
2022-10-12T09:08:19.837Z,27.52
2022-10-12T09:10:53.466Z,25.92
2022-10-12T09:14:02.032Z,27.80
2022-10-12T09:16:32.650Z,24.02
2022-10-12T09:19:05.445Z,25.08
2022-10-12T09:21:33.207Z,27.17
2022-10-12T09:24:01.104Z,25.23
2022-10-12T09:26:36.989Z,24.50
2022-10-12T09:29:24.554Z,23.98
2022-10-12T09:32:20.369Z,23.35
2022-10-12T09:34:49.183Z,25.30
2022-10-12T09:37:20.858Z,25.02
2022-10-12T09:39:49.117Z,23.83
2022-10-12T09:42:16.677Z,24.13
2022-10-12T09:45:02.121Z,24.17
2022-10-12T09:47:31.725Z,24.45
2022-10-12T09:50:08.272Z,24.55
2022-10-12T09:52:44.076Z,25.45
2022-10-12T09:57:56.434Z,25.08
2022-10-12T10:00:35.872Z,24.50
2022-10-12T10:03:03.522Z,23.50
2022-10-12T10:05:36.712Z,25.10
2022-10-12T10:08:22.450Z,24.92
2022-10-12T10:11:00.929Z,23.33
2022-10-12T10:13:32.787Z,24.90
2022-10-12T10:16:11.038Z,24.17
2022-10-12T10:18:50.599Z,26.00
2022-10-12T10:21:26.698Z,25.10
2022-10-12T10:24:02.634Z,24.90
2022-10-12T10:26:51.187Z,24.40
2022-10-12T10:29:35.029Z,25.95
2022-10-12T10:32:26.421Z,24.90
2022-10-12T10:35:11.831Z,24.33
2022-10-12T10:37:42.780Z,23.42
2022-10-12T10:40:24.843Z,23.13
2022-10-12T10:42:55.828Z,24.17
2022-10-12T10:45:29.520Z,22.92
2022-10-12T10:48:01.516Z,21.73
2022-10-12T10:50:40.930Z,22.23
2022-10-12T10:53:22.225Z,22.70
2022-10-12T10:56:12.935Z,24.15
2022-10-12T10:58:45.905Z,23.77
2022-10-12T11:01:15.616Z,23.52
2022-10-12T11:04:04.823Z,24.05
2022-10-12T11:06:43.483Z,23.67
2022-10-12T11:09:17.485Z,24.10
2022-10-12T11:11:49.954Z,23.23
2022-10-12T11:14:20.811Z,22.92
2022-10-12T11:17:10.411Z,23.58
2022-10-12T11:19:42.372Z,24.00
2022-10-12T11:22:18.789Z,22.73
2022-10-12T11:24:51.362Z,22.58
2022-10-12T11:27:28.358Z,22.77
2022-10-12T11:30:09.036Z,22.75
2022-10-12T11:32:41.762Z,21.33
2022-10-12T11:35:23.753Z,21.85
2022-10-12T11:38:04.632Z,22.02
2022-10-12T11:41:05.626Z,20.33
2022-10-12T11:44:09.615Z,21.00
2022-10-12T11:47:01.569Z,19.15
2022-10-12T11:49:51.447Z,20.50
2022-10-12T11:54:54.280Z,19.45
2022-10-12T11:57:31.407Z,17.52
2022-10-12T12:00:22.615Z,18.23
2022-10-12T12:03:03.059Z,17.25
2022-10-12T12:05:33.175Z,16.65
2022-10-12T12:08:00.242Z,16.10
2022-10-12T12:10:35.400Z,15.43
2022-10-12T12:13:12.948Z,14.65
2022-10-12T12:16:03.927Z,16.00
2022-10-12T12:19:10.851Z,16.02
2022-10-12T12:22:13.118Z,16.15
2022-10-12T12:24:50.671Z,15.23
2022-10-12T12:27:31.587Z,15.45
2022-10-12T12:30:01.466Z,15.43
2022-10-12T12:35:54.523Z,13.73
2022-10-12T12:38:32.104Z,12.15
2022-10-12T12:41:11.587Z,11.57
2022-10-12T12:43:58.172Z,12.95
2022-10-12T12:46:54.091Z,14.10
2022-10-12T12:49:46.302Z,11.77
2022-10-12T12:52:37.057Z,10.82
2022-10-12T12:55:42.145Z,9.45
2022-10-12T12:58:24.237Z,10.70
2022-10-12T13:01:03.486Z,10.77
2022-10-12T13:03:45.372Z,9.32
2022-10-12T13:06:33.832Z,9.88
2022-10-12T13:09:48.388Z,9.75
2022-10-12T13:12:33.971Z,9.73
2022-10-12T13:15:12.837Z,9.35
2022-10-12T13:18:23.311Z,9.60
2022-10-12T13:21:00.144Z,9.50
2022-10-12T13:23:28.206Z,10.68
2022-10-12T13:26:03.715Z,10.23
2022-10-12T13:33:03.642Z,8.65
2022-10-12T13:35:37.177Z,9.50
2022-10-12T13:38:21.067Z,10.10
2022-10-12T13:41:14.200Z,9.60
2022-10-12T13:43:59.809Z,9.82
2022-10-12T13:46:56.836Z,9.60
2022-10-12T13:49:42.981Z,10.02
2022-10-12T13:52:12.940Z,9.30
2022-10-12T13:54:42.784Z,10.00
2022-10-12T13:58:01.074Z,10.23
2022-10-12T14:00:36.518Z,9.07
2022-10-12T14:03:08.727Z,8.75
2022-10-12T14:05:44.096Z,8.30
2022-10-12T14:08:19.394Z,9.02
2022-10-12T14:10:46.619Z,8.55
2022-10-12T14:13:15.663Z,9.10
2022-10-12T14:15:43.054Z,7.85
2022-10-12T14:18:39.633Z,7.82
2022-10-12T14:21:25.588Z,7.28
2022-10-12T14:23:57.162Z,7.53
2022-10-12T14:26:38.491Z,7.18
2022-10-12T14:29:33.540Z,7.80
2022-10-12T14:32:24.057Z,8.77
2022-10-12T14:35:24.055Z,7.85
2022-10-12T14:37:52.656Z,7.95
2022-10-12T14:40:38.633Z,7.65
2022-10-12T14:43:20.120Z,8.65
2022-10-12T14:45:47.209Z,8.70
2022-10-12T14:48:17.370Z,8.38
2022-10-12T14:50:44.738Z,8.80
2022-10-12T14:53:13.559Z,8.65
2022-10-12T14:55:41.787Z,8.07
2022-10-12T14:58:13.978Z,8.88
2022-10-12T15:00:41.029Z,9.45
2022-10-12T15:03:08.103Z,9.32
2022-10-12T15:05:35.147Z,9.73
2022-10-12T15:08:07.426Z,9.32
2022-10-12T15:10:35.574Z,8.32
2022-10-12T15:13:02.618Z,9.13
2022-10-12T15:15:35.483Z,10.18
2022-10-12T15:18:02.827Z,10.60
2022-10-12T15:20:31.248Z,10.43
2022-10-12T15:22:59.497Z,10.30
2022-10-12T15:25:51.645Z,9.25
2022-10-12T15:28:19.320Z,9.93
2022-10-12T15:31:15.381Z,9.35
2022-10-12T15:33:33.709Z,10.52
2022-10-12T15:36:01.205Z,9.98
2022-10-12T15:38:28.183Z,8.75
2022-10-12T15:40:58.141Z,10.77
2022-10-12T15:43:26.047Z,11.43
2022-10-12T15:45:53.561Z,10.10
2022-10-12T15:48:20.532Z,9.73
2022-10-12T15:50:49.819Z,8.82
2022-10-12T15:53:21.005Z,9.05
2022-10-12T15:55:48.475Z,10.55
2022-10-12T15:58:15.880Z,8.70
2022-10-12T16:00:56.623Z,9.60
2022-10-12T16:03:26.287Z,9.68
2022-10-12T16:05:53.820Z,9.77
2022-10-12T16:08:20.959Z,9.18
2022-10-12T16:10:48.401Z,9.38
2022-10-12T16:13:16.497Z,9.85
2022-10-12T16:15:44.241Z,9.00
2022-10-12T16:18:12.072Z,9.23
2022-10-12T16:20:41.272Z,10.38
2022-10-12T16:23:31.167Z,9.25
2022-10-12T16:25:59.138Z,9.70
2022-10-12T16:28:26.242Z,8.85
2022-10-12T16:30:53.224Z,9.10
2022-10-12T16:33:20.207Z,11.20
2022-10-12T16:35:47.873Z,11.02
2022-10-12T16:38:15.259Z,11.75
2022-10-12T16:40:42.857Z,11.80
2022-10-12T16:43:10.640Z,12.70
2022-10-12T16:45:38.018Z,13.02
2022-10-12T16:48:05.161Z,13.27
2022-10-12T16:50:32.444Z,13.57
2022-10-12T16:52:59.442Z,12.40
2022-10-12T16:55:26.502Z,12.23
2022-10-12T16:57:53.450Z,12.90
2022-10-12T17:00:20.857Z,12.45
2022-10-12T17:02:48.131Z,13.10
2022-10-12T17:05:15.158Z,12.15
2022-10-12T17:07:42.221Z,13.02
2022-10-12T17:10:09.829Z,12.55
2022-10-12T17:12:36.863Z,12.02
2022-10-12T17:15:04.883Z,13.18
2022-10-12T17:17:31.953Z,12.60
2022-10-12T17:19:58.995Z,11.93
2022-10-12T17:22:26.286Z,12.10
2022-10-12T17:24:53.514Z,12.57
2022-10-12T17:27:20.590Z,13.05
2022-10-12T17:29:47.820Z,13.18
2022-10-12T17:32:15.253Z,13.85
2022-10-12T17:34:44.683Z,15.63
2022-10-12T17:37:14.326Z,12.82
2022-10-12T17:39:44.591Z,12.52
2022-10-12T17:46:31.159Z,14.02
2022-10-12T17:48:59.379Z,12.85
2022-10-12T17:51:26.682Z,14.23
2022-10-12T17:53:53.822Z,14.20
2022-10-12T17:56:20.802Z,14.38
2022-10-12T17:58:52.373Z,13.73
2022-10-12T18:01:19.367Z,14.93
2022-10-12T18:03:47.792Z,13.82
2022-10-12T18:06:17.271Z,16.00
2022-10-12T18:08:44.755Z,14.82
2022-10-12T18:11:12.179Z,15.20
2022-10-12T18:13:39.245Z,14.20
2022-10-12T18:16:10.756Z,14.93
2022-10-12T18:18:38.658Z,13.85
2022-10-12T18:21:07.104Z,14.80
2022-10-12T18:23:34.093Z,16.17
2022-10-12T18:26:05.540Z,16.13
2022-10-12T18:28:32.657Z,14.48
2022-10-12T18:37:47.851Z,13.40
2022-10-12T18:40:14.847Z,13.88
2022-10-12T18:42:41.825Z,14.75
2022-10-12T18:45:09.104Z,14.27
2022-10-12T18:47:37.405Z,14.80
2022-10-12T18:50:05.722Z,14.48
2022-10-12T18:52:33.550Z,13.57
2022-10-12T18:55:00.729Z,15.23
2022-10-12T18:57:30.956Z,13.73
2022-10-12T18:59:59.187Z,14.82
2022-10-12T19:02:26.141Z,14.88
2022-10-12T19:04:53.125Z,14.85
2022-10-12T19:07:20.075Z,15.00
2022-10-12T19:09:47.263Z,16.00
2022-10-12T19:12:16.968Z,16.58
2022-10-12T19:14:44.182Z,14.88
2022-10-12T19:17:11.233Z,13.48
2022-10-12T19:19:38.411Z,14.77
2022-10-12T19:22:06.046Z,15.73
2022-10-12T19:24:33.432Z,14.90
2022-10-12T19:27:00.474Z,15.70
2022-10-12T19:29:27.431Z,15.45
2022-10-12T19:31:54.627Z,14.85
2022-10-12T19:34:22.428Z,15.95
2022-10-12T19:36:50.195Z,16.17
2022-10-12T19:39:22.577Z,16.08
2022-10-12T19:41:51.263Z,17.15
2022-10-12T19:44:19.431Z,16.65
2022-10-12T19:46:51.141Z,16.70
2022-10-12T19:49:18.983Z,16.88
2022-10-12T19:51:46.917Z,16.45
2022-10-12T19:54:15.379Z,16.50
2022-10-12T19:56:42.376Z,16.08
2022-10-12T19:59:09.820Z,16.52
2022-10-12T20:01:38.899Z,15.30
2022-10-12T20:04:09.962Z,15.82
2022-10-12T20:06:37.658Z,17.25
2022-10-12T20:09:06.427Z,16.65
2022-10-12T20:11:33.891Z,16.48
2022-10-12T20:14:01.899Z,15.85
2022-10-12T20:16:32.480Z,15.93
2022-10-12T20:19:01.815Z,16.95
2022-10-12T20:21:28.859Z,18.70
2022-10-12T20:23:55.934Z,17.85
2022-10-12T20:26:25.016Z,17.20
2022-10-12T20:28:53.466Z,17.55
2022-10-12T20:31:23.835Z,17.08
2022-10-12T20:33:58.018Z,17.30
2022-10-12T20:36:30.251Z,17.67
2022-10-12T20:38:58.483Z,17.90
2022-10-12T20:41:26.050Z,17.58
2022-10-12T20:43:57.659Z,17.85
2022-10-12T20:46:25.119Z,18.73
2022-10-12T20:53:17.716Z,18.40
2022-10-12T20:55:45.629Z,18.92
2022-10-12T20:58:13.290Z,18.05
2022-10-12T21:00:40.808Z,17.83
2022-10-12T21:03:08.126Z,17.48
2022-10-12T21:05:35.643Z,15.73
2022-10-12T21:08:03.344Z,15.38
2022-10-12T21:10:36.762Z,14.82
2022-10-12T21:13:06.948Z,17.50
2022-10-12T21:15:34.332Z,16.92
2022-10-12T21:18:01.602Z,17.52
2022-10-12T21:20:28.750Z,18.15
2022-10-12T21:22:55.690Z,18.33
2022-10-12T21:25:22.636Z,18.60
2022-10-12T21:27:49.682Z,18.23
2022-10-12T21:30:16.769Z,17.58
2022-10-12T21:32:43.719Z,18.38
2022-10-12T21:35:10.705Z,18.75
2022-10-12T21:37:37.688Z,18.85
2022-10-12T21:40:05.258Z,18.45
2022-10-12T21:42:32.185Z,19.95
2022-10-12T21:44:59.168Z,18.83
2022-10-12T21:47:26.113Z,18.92
2022-10-12T21:49:53.111Z,19.92
2022-10-12T21:52:20.286Z,19.27
2022-10-12T21:54:47.488Z,19.33
2022-10-12T21:57:14.765Z,18.90
2022-10-12T21:59:41.749Z,19.33
2022-10-12T22:02:08.687Z,18.52
2022-10-12T22:04:39.840Z,18.08
2022-10-12T22:07:06.834Z,17.23
2022-10-12T22:09:33.815Z,18.20
2022-10-12T22:12:00.766Z,18.15
2022-10-12T22:14:27.758Z,17.83
2022-10-12T22:16:54.758Z,17.13
2022-10-12T22:19:22.058Z,17.70
2022-10-12T22:21:51.252Z,15.93
2022-10-12T22:24:20.038Z,18.23
2022-10-12T22:26:47.083Z,17.50
2022-10-12T22:29:14.472Z,17.27
2022-10-12T22:31:41.646Z,17.27
2022-10-12T22:34:10.478Z,18.35
2022-10-12T22:36:37.542Z,18.30
2022-10-12T22:39:05.705Z,18.40
2022-10-12T22:41:32.684Z,17.30
2022-10-12T22:43:59.661Z,18.00
2022-10-12T22:46:27.056Z,19.90
2022-10-12T22:48:54.749Z,15.60
2022-10-12T22:51:31.025Z,14.32
2022-10-12T22:53:58.772Z,15.68
2022-10-12T22:56:26.115Z,16.08
2022-10-12T22:58:58.373Z,18.13
2022-10-12T23:01:26.305Z,17.77
2022-10-12T23:03:54.607Z,19.45
2022-10-12T23:06:22.296Z,17.00
2022-10-12T23:08:49.334Z,16.75
2022-10-12T23:11:18.605Z,18.55
2022-10-12T23:13:46.281Z,17.30
2022-10-12T23:16:21.649Z,18.80
2022-10-12T23:18:55.490Z,17.67
2022-10-12T23:21:26.082Z,19.13
2022-10-12T23:23:53.039Z,19.80
2022-10-12T23:26:22.042Z,18.55
2022-10-12T23:28:50.179Z,19.10
2022-10-12T23:31:19.765Z,18.98
2022-10-12T23:33:47.102Z,19.60
2022-10-12T23:36:16.930Z,18.73
2022-10-12T23:41:12.978Z,18.98
2022-10-12T23:43:40.308Z,19.65
2022-10-12T23:46:07.538Z,18.35
2022-10-12T23:48:35.149Z,17.98
2022-10-12T23:51:02.434Z,17.58
2022-10-12T23:53:29.411Z,16.70
2022-10-12T23:55:56.658Z,15.20
2022-10-12T23:58:23.667Z,16.58
